Serra Negra, Brazil
Current Conditions -  °F | °C
As of 4:00 AM on Tuesday 21 Oct 2014 (Local Time) from SBKP Reporting Station
Broken Clouds Broken Clouds  
Wind Chill: 64°   Ceiling: 2000
Heat Index: 64°   Visibility: 6mi
Dew Point: 57°   Wind: 13mph
Humidity: 77%   Direction: 150°SSE
Pressure: 30.06"   Gusts: NA
Location:  22.61°S, 46.7°W
Report Text: SBKP 210600Z 15011KT 9999 BKN020 BKN100 18/14 Q1018
Loading
Personal Weather Stations






























Interactive Weather Map
Tropical Storm Tracking
New forecast layout! Learn more

10-Day Weather Forecast

Advertisements
Track Severe Weather on mobile